sensor_id;sensor_type;location;lat;lon;timestamp;P1;durP1;ratioP1;P2;durP2;ratioP2
56037;SDS011;41907;47.848;9.000;2024-03-08T00:00:45;39.75;;;23.45;;
56037;SDS011;41907;47.848;9.000;2024-03-08T00:03:11;45.50;;;23.17;;
56037;SDS011;41907;47.848;9.000;2024-03-08T00:05:36;49.08;;;24.60;;
56037;SDS011;41907;47.848;9.000;2024-03-08T00:08:04;45.53;;;23.38;;
56037;SDS011;41907;47.848;9.000;2024-03-08T00:10:34;43.63;;;23.58;;
56037;SDS011;41907;47.848;9.000;2024-03-08T00:12:59;45.15;;;23.73;;
56037;SDS011;41907;47.848;9.000;2024-03-08T00:15:25;46.03;;;24.52;;
56037;SDS011;41907;47.848;9.000;2024-03-08T00:17:50;46.33;;;24.27;;
56037;SDS011;41907;47.848;9.000;2024-03-08T00:20:16;48.78;;;24.23;;
56037;SDS011;41907;47.848;9.000;2024-03-08T00:22:44;45.58;;;23.50;;
56037;SDS011;41907;47.848;9.000;2024-03-08T00:25:09;42.25;;;22.88;;
56037;SDS011;41907;47.848;9.000;2024-03-08T00:27:35;44.58;;;22.25;;
56037;SDS011;41907;47.848;9.000;2024-03-08T00:30:01;41.42;;;21.90;;
56037;SDS011;41907;47.848;9.000;2024-03-08T00:32:27;43.22;;;23.55;;
56037;SDS011;41907;47.848;9.000;2024-03-08T00:34:53;41.28;;;21.88;;
56037;SDS011;41907;47.848;9.000;2024-03-08T00:37:19;40.20;;;22.23;;
56037;SDS011;41907;47.848;9.000;2024-03-08T00:39:50;45.65;;;22.17;;
56037;SDS011;41907;47.848;9.000;2024-03-08T00:42:17;41.30;;;21.80;;
56037;SDS011;41907;47.848;9.000;2024-03-08T00:44:43;40.65;;;22.95;;
56037;SDS011;41907;47.848;9.000;2024-03-08T00:47:08;40.78;;;21.50;;
56037;SDS011;41907;47.848;9.000;2024-03-08T00:49:34;41.08;;;23.13;;
56037;SDS011;41907;47.848;9.000;2024-03-08T00:52:01;42.95;;;22.42;;
56037;SDS011;41907;47.848;9.000;2024-03-08T00:54:27;43.83;;;22.77;;
56037;SDS011;41907;47.848;9.000;2024-03-08T00:56:52;40.67;;;22.20;;
56037;SDS011;41907;47.848;9.000;2024-03-08T00:59:18;42.63;;;22.95;;
56037;SDS011;41907;47.848;9.000;2024-03-08T01:01:43;42.65;;;22.38;;
56037;SDS011;41907;47.848;9.000;2024-03-08T01:04:09;38.25;;;21.55;;
56037;SDS011;41907;47.848;9.000;2024-03-08T01:06:35;40.10;;;23.65;;
56037;SDS011;41907;47.848;9.000;2024-03-08T01:09:00;42.20;;;22.73;;
56037;SDS011;41907;47.848;9.000;2024-03-08T01:11:26;40.25;;;22.08;;
56037;SDS011;41907;47.848;9.000;2024-03-08T01:13:53;40.88;;;21.92;;
56037;SDS011;41907;47.848;9.000;2024-03-08T01:16:18;41.25;;;23.40;;
56037;SDS011;41907;47.848;9.000;2024-03-08T01:18:45;43.75;;;23.27;;
56037;SDS011;41907;47.848;9.000;2024-03-08T01:21:11;44.58;;;23.20;;
56037;SDS011;41907;47.848;9.000;2024-03-08T01:23:36;41.95;;;23.55;;
56037;SDS011;41907;47.848;9.000;2024-03-08T01:26:02;41.85;;;22.02;;
56037;SDS011;41907;47.848;9.000;2024-03-08T01:28:28;41.05;;;23.65;;
56037;SDS011;41907;47.848;9.000;2024-03-08T01:30:53;46.10;;;22.00;;
56037;SDS011;41907;47.848;9.000;2024-03-08T01:33:24;44.50;;;22.73;;
56037;SDS011;41907;47.848;9.000;2024-03-08T01:35:51;39.90;;;22.17;;
56037;SDS011;41907;47.848;9.000;2024-03-08T01:38:17;42.10;;;23.33;;
56037;SDS011;41907;47.848;9.000;2024-03-08T01:40:43;47.58;;;22.92;;
56037;SDS011;41907;47.848;9.000;2024-03-08T01:45:46;42.78;;;23.85;;
56037;SDS011;41907;47.848;9.000;2024-03-08T01:48:12;39.45;;;22.55;;
56037;SDS011;41907;47.848;9.000;2024-03-08T01:50:39;41.47;;;21.27;;
56037;SDS011;41907;47.848;9.000;2024-03-08T01:53:06;43.85;;;23.92;;
56037;SDS011;41907;47.848;9.000;2024-03-08T01:55:35;43.60;;;23.30;;
56037;SDS011;41907;47.848;9.000;2024-03-08T01:58:02;43.83;;;23.33;;
56037;SDS011;41907;47.848;9.000;2024-03-08T02:00:29;45.88;;;24.48;;
56037;SDS011;41907;47.848;9.000;2024-03-08T02:02:55;46.20;;;22.77;;
56037;SDS011;41907;47.848;9.000;2024-03-08T02:05:22;44.10;;;23.92;;
56037;SDS011;41907;47.848;9.000;2024-03-08T02:07:49;45.20;;;24.70;;
56037;SDS011;41907;47.848;9.000;2024-03-08T02:10:14;49.20;;;25.65;;
56037;SDS011;41907;47.848;9.000;2024-03-08T02:12:40;50.25;;;24.50;;
56037;SDS011;41907;47.848;9.000;2024-03-08T02:15:06;45.80;;;24.23;;
56037;SDS011;41907;47.848;9.000;2024-03-08T02:17:32;45.90;;;24.75;;
56037;SDS011;41907;47.848;9.000;2024-03-08T02:20:00;47.25;;;25.02;;
56037;SDS011;41907;47.848;9.000;2024-03-08T02:22:27;44.38;;;24.25;;
56037;SDS011;41907;47.848;9.000;2024-03-08T02:24:53;47.67;;;24.90;;
56037;SDS011;41907;47.848;9.000;2024-03-08T02:27:23;44.47;;;24.27;;
56037;SDS011;41907;47.848;9.000;2024-03-08T02:29:50;51.30;;;24.80;;
56037;SDS011;41907;47.848;9.000;2024-03-08T02:32:20;47.67;;;25.15;;
56037;SDS011;41907;47.848;9.000;2024-03-08T02:34:46;44.92;;;24.58;;
56037;SDS011;41907;47.848;9.000;2024-03-08T02:37:11;47.55;;;24.48;;
56037;SDS011;41907;47.848;9.000;2024-03-08T02:39:36;45.10;;;23.48;;
56037;SDS011;41907;47.848;9.000;2024-03-08T02:42:02;49.85;;;23.85;;
56037;SDS011;41907;47.848;9.000;2024-03-08T02:44:27;40.88;;;23.88;;
56037;SDS011;41907;47.848;9.000;2024-03-08T02:46:52;46.55;;;24.60;;
56037;SDS011;41907;47.848;9.000;2024-03-08T02:49:20;43.67;;;23.77;;
56037;SDS011;41907;47.848;9.000;2024-03-08T02:51:45;46.65;;;23.55;;
56037;SDS011;41907;47.848;9.000;2024-03-08T02:54:11;46.55;;;25.13;;
56037;SDS011;41907;47.848;9.000;2024-03-08T02:56:36;42.67;;;24.27;;
56037;SDS011;41907;47.848;9.000;2024-03-08T02:59:02;42.78;;;22.40;;
56037;SDS011;41907;47.848;9.000;2024-03-08T03:01:27;42.45;;;22.65;;
56037;SDS011;41907;47.848;9.000;2024-03-08T03:03:53;44.60;;;24.02;;
56037;SDS011;41907;47.848;9.000;2024-03-08T03:06:18;44.90;;;22.63;;
56037;SDS011;41907;47.848;9.000;2024-03-08T03:08:46;43.72;;;23.02;;
56037;SDS011;41907;47.848;9.000;2024-03-08T03:11:11;42.65;;;22.27;;
56037;SDS011;41907;47.848;9.000;2024-03-08T03:13:38;44.17;;;23.38;;
56037;SDS011;41907;47.848;9.000;2024-03-08T03:16:04;45.05;;;24.20;;
56037;SDS011;41907;47.848;9.000;2024-03-08T03:18:29;43.95;;;24.23;;
56037;SDS011;41907;47.848;9.000;2024-03-08T03:20:55;46.65;;;25.00;;
56037;SDS011;41907;47.848;9.000;2024-03-08T03:23:21;41.17;;;23.08;;
56037;SDS011;41907;47.848;9.000;2024-03-08T03:25:46;42.65;;;23.33;;
56037;SDS011;41907;47.848;9.000;2024-03-08T03:28:11;43.00;;;23.60;;
56037;SDS011;41907;47.848;9.000;2024-03-08T03:30:42;44.75;;;24.45;;
56037;SDS011;41907;47.848;9.000;2024-03-08T03:33:08;46.53;;;24.00;;
56037;SDS011;41907;47.848;9.000;2024-03-08T03:35:34;42.80;;;23.33;;
56037;SDS011;41907;47.848;9.000;2024-03-08T03:38:01;44.35;;;22.52;;
56037;SDS011;41907;47.848;9.000;2024-03-08T03:40:28;41.38;;;22.60;;
56037;SDS011;41907;47.848;9.000;2024-03-08T03:42:54;44.15;;;24.05;;
56037;SDS011;41907;47.848;9.000;2024-03-08T03:45:19;45.75;;;23.55;;
56037;SDS011;41907;47.848;9.000;2024-03-08T03:47:45;40.47;;;23.38;;
56037;SDS011;41907;47.848;9.000;2024-03-08T03:50:11;42.13;;;22.98;;
56037;SDS011;41907;47.848;9.000;2024-03-08T03:52:36;47.00;;;23.00;;
56037;SDS011;41907;47.848;9.000;2024-03-08T03:55:01;54.85;;;27.70;;
56037;SDS011;41907;47.848;9.000;2024-03-08T03:57:29;43.22;;;24.92;;
56037;SDS011;41907;47.848;9.000;2024-03-08T03:59:55;51.00;;;26.50;;
56037;SDS011;41907;47.848;9.000;2024-03-08T04:02:20;45.55;;;23.20;;
56037;SDS011;41907;47.848;9.000;2024-03-08T04:04:46;46.58;;;24.17;;
56037;SDS011;41907;47.848;9.000;2024-03-08T04:07:12;52.45;;;24.80;;
56037;SDS011;41907;47.848;9.000;2024-03-08T04:09:38;49.55;;;24.48;;
56037;SDS011;41907;47.848;9.000;2024-03-08T04:12:03;54.60;;;27.25;;
56037;SDS011;41907;47.848;9.000;2024-03-08T04:14:29;49.45;;;25.17;;
56037;SDS011;41907;47.848;9.000;2024-03-08T04:16:55;47.53;;;24.92;;
56037;SDS011;41907;47.848;9.000;2024-03-08T04:19:20;52.22;;;25.65;;
56037;SDS011;41907;47.848;9.000;2024-03-08T04:21:45;49.45;;;24.98;;
56037;SDS011;41907;47.848;9.000;2024-03-08T04:24:12;48.33;;;26.15;;
56037;SDS011;41907;47.848;9.000;2024-03-08T04:26:37;47.83;;;24.80;;
56037;SDS011;41907;47.848;9.000;2024-03-08T04:29:03;52.20;;;25.80;;
56037;SDS011;41907;47.848;9.000;2024-03-08T04:31:28;54.00;;;26.88;;
56037;SDS011;41907;47.848;9.000;2024-03-08T04:33:56;51.13;;;25.27;;
56037;SDS011;41907;47.848;9.000;2024-03-08T04:36:21;48.83;;;24.08;;
56037;SDS011;41907;47.848;9.000;2024-03-08T04:38:47;48.95;;;25.67;;
56037;SDS011;41907;47.848;9.000;2024-03-08T04:41:12;46.05;;;24.50;;
56037;SDS011;41907;47.848;9.000;2024-03-08T04:43:37;48.28;;;25.92;;
56037;SDS011;41907;47.848;9.000;2024-03-08T04:46:04;48.25;;;24.77;;
56037;SDS011;41907;47.848;9.000;2024-03-08T04:48:30;45.03;;;24.00;;
56037;SDS011;41907;47.848;9.000;2024-03-08T04:50:56;53.13;;;25.92;;
56037;SDS011;41907;47.848;9.000;2024-03-08T04:53:21;47.00;;;24.10;;
56037;SDS011;41907;47.848;9.000;2024-03-08T04:55:47;48.33;;;25.73;;
56037;SDS011;41907;47.848;9.000;2024-03-08T04:58:12;44.10;;;23.58;;
56037;SDS011;41907;47.848;9.000;2024-03-08T05:00:37;48.00;;;24.52;;
56037;SDS011;41907;47.848;9.000;2024-03-08T05:03:03;47.08;;;24.85;;
56037;SDS011;41907;47.848;9.000;2024-03-08T05:05:29;48.05;;;23.80;;
56037;SDS011;41907;47.848;9.000;2024-03-08T05:07:55;46.30;;;25.10;;
56037;SDS011;41907;47.848;9.000;2024-03-08T05:10:20;48.95;;;25.67;;
56037;SDS011;41907;47.848;9.000;2024-03-08T05:12:46;51.88;;;26.70;;
56037;SDS011;41907;47.848;9.000;2024-03-08T05:15:11;50.17;;;24.20;;
56037;SDS011;41907;47.848;9.000;2024-03-08T05:17:36;50.22;;;26.65;;
56037;SDS011;41907;47.848;9.000;2024-03-08T05:20:02;50.45;;;26.58;;
56037;SDS011;41907;47.848;9.000;2024-03-08T05:22:28;49.58;;;25.20;;
56037;SDS011;41907;47.848;9.000;2024-03-08T05:24:54;44.38;;;24.25;;
56037;SDS011;41907;47.848;9.000;2024-03-08T05:27:19;50.92;;;25.92;;
56037;SDS011;41907;47.848;9.000;2024-03-08T05:29:45;51.22;;;25.80;;
56037;SDS011;41907;47.848;9.000;2024-03-08T05:32:11;49.10;;;25.48;;
56037;SDS011;41907;47.848;9.000;2024-03-08T05:34:37;49.60;;;25.33;;
56037;SDS011;41907;47.848;9.000;2024-03-08T05:37:02;45.65;;;25.42;;
56037;SDS011;41907;47.848;9.000;2024-03-08T05:39:28;48.97;;;24.80;;
56037;SDS011;41907;47.848;9.000;2024-03-08T05:41:54;46.28;;;24.40;;
56037;SDS011;41907;47.848;9.000;2024-03-08T05:44:20;50.47;;;24.60;;
56037;SDS011;41907;47.848;9.000;2024-03-08T05:46:46;49.95;;;24.85;;
56037;SDS011;41907;47.848;9.000;2024-03-08T05:49:11;52.85;;;25.15;;
56037;SDS011;41907;47.848;9.000;2024-03-08T05:51:37;46.55;;;24.45;;
56037;SDS011;41907;47.848;9.000;2024-03-08T05:54:07;48.65;;;23.27;;
56037;SDS011;41907;47.848;9.000;2024-03-08T05:56:37;48.20;;;25.48;;
56037;SDS011;41907;47.848;9.000;2024-03-08T05:59:03;45.13;;;22.17;;
56037;SDS011;41907;47.848;9.000;2024-03-08T06:01:29;49.80;;;24.77;;
56037;SDS011;41907;47.848;9.000;2024-03-08T06:03:56;44.88;;;23.73;;
56037;SDS011;41907;47.848;9.000;2024-03-08T06:06:25;47.38;;;25.20;;
56037;SDS011;41907;47.848;9.000;2024-03-08T06:08:51;49.10;;;23.35;;
56037;SDS011;41907;47.848;9.000;2024-03-08T06:11:17;50.03;;;24.25;;
56037;SDS011;41907;47.848;9.000;2024-03-08T06:13:43;46.50;;;23.58;;
56037;SDS011;41907;47.848;9.000;2024-03-08T06:16:11;49.28;;;22.60;;
56037;SDS011;41907;47.848;9.000;2024-03-08T06:18:37;49.35;;;22.60;;
56037;SDS011;41907;47.848;9.000;2024-03-08T06:21:03;49.22;;;24.25;;
56037;SDS011;41907;47.848;9.000;2024-03-08T06:23:30;41.00;;;21.38;;
56037;SDS011;41907;47.848;9.000;2024-03-08T06:25:58;47.13;;;23.40;;
56037;SDS011;41907;47.848;9.000;2024-03-08T06:28:24;46.45;;;24.05;;
56037;SDS011;41907;47.848;9.000;2024-03-08T06:30:49;47.92;;;24.65;;
56037;SDS011;41907;47.848;9.000;2024-03-08T06:33:16;48.55;;;24.80;;
56037;SDS011;41907;47.848;9.000;2024-03-08T06:35:42;45.53;;;23.27;;
56037;SDS011;41907;47.848;9.000;2024-03-08T06:38:07;48.50;;;25.08;;
56037;SDS011;41907;47.848;9.000;2024-03-08T06:40:33;49.22;;;25.55;;
56037;SDS011;41907;47.848;9.000;2024-03-08T06:42:58;50.10;;;25.15;;
56037;SDS011;41907;47.848;9.000;2024-03-08T06:45:24;48.22;;;24.13;;
56037;SDS011;41907;47.848;9.000;2024-03-08T06:47:50;49.90;;;23.48;;
56037;SDS011;41907;47.848;9.000;2024-03-08T06:50:16;47.80;;;24.45;;
56037;SDS011;41907;47.848;9.000;2024-03-08T06:52:41;49.42;;;24.67;;
56037;SDS011;41907;47.848;9.000;2024-03-08T06:55:13;47.03;;;22.67;;
56037;SDS011;41907;47.848;9.000;2024-03-08T06:57:41;50.50;;;23.73;;
56037;SDS011;41907;47.848;9.000;2024-03-08T07:00:10;51.53;;;25.05;;
56037;SDS011;41907;47.848;9.000;2024-03-08T07:02:43;49.35;;;23.73;;
56037;SDS011;41907;47.848;9.000;2024-03-08T07:05:11;45.90;;;22.80;;
56037;SDS011;41907;47.848;9.000;2024-03-08T07:07:36;47.33;;;22.90;;
56037;SDS011;41907;47.848;9.000;2024-03-08T07:10:02;49.95;;;25.60;;
56037;SDS011;41907;47.848;9.000;2024-03-08T07:12:28;46.33;;;23.95;;
56037;SDS011;41907;47.848;9.000;2024-03-08T07:14:53;44.20;;;22.63;;
56037;SDS011;41907;47.848;9.000;2024-03-08T07:17:19;45.25;;;24.52;;
56037;SDS011;41907;47.848;9.000;2024-03-08T07:19:45;45.05;;;22.63;;
56037;SDS011;41907;47.848;9.000;2024-03-08T07:22:10;44.15;;;21.73;;
56037;SDS011;41907;47.848;9.000;2024-03-08T07:24:36;42.80;;;23.58;;
56037;SDS011;41907;47.848;9.000;2024-03-08T07:27:17;51.55;;;24.17;;
56037;SDS011;41907;47.848;9.000;2024-03-08T07:29:42;44.53;;;22.52;;
56037;SDS011;41907;47.848;9.000;2024-03-08T07:32:08;41.72;;;22.13;;
56037;SDS011;41907;47.848;9.000;2024-03-08T07:34:50;42.47;;;21.55;;
56037;SDS011;41907;47.848;9.000;2024-03-08T07:37:16;39.67;;;21.25;;
56037;SDS011;41907;47.848;9.000;2024-03-08T07:39:42;40.72;;;22.63;;
56037;SDS011;41907;47.848;9.000;2024-03-08T07:42:08;44.67;;;22.10;;
56037;SDS011;41907;47.848;9.000;2024-03-08T07:44:35;40.20;;;21.73;;
56037;SDS011;41907;47.848;9.000;2024-03-08T07:47:00;43.05;;;21.63;;
56037;SDS011;41907;47.848;9.000;2024-03-08T07:49:25;44.78;;;22.63;;
56037;SDS011;41907;47.848;9.000;2024-03-08T07:51:51;41.78;;;21.70;;
56037;SDS011;41907;47.848;9.000;2024-03-08T07:54:16;45.50;;;22.30;;
56037;SDS011;41907;47.848;9.000;2024-03-08T07:56:42;40.20;;;20.50;;
56037;SDS011;41907;47.848;9.000;2024-03-08T07:59:07;44.92;;;22.55;;
56037;SDS011;41907;47.848;9.000;2024-03-08T08:01:33;42.60;;;21.50;;
56037;SDS011;41907;47.848;9.000;2024-03-08T08:03:59;40.35;;;21.92;;
56037;SDS011;41907;47.848;9.000;2024-03-08T08:06:26;46.20;;;22.40;;
56037;SDS011;41907;47.848;9.000;2024-03-08T08:08:51;43.78;;;21.55;;
56037;SDS011;41907;47.848;9.000;2024-03-08T08:11:17;41.55;;;21.15;;
56037;SDS011;41907;47.848;9.000;2024-03-08T08:13:42;38.28;;;19.92;;
56037;SDS011;41907;47.848;9.000;2024-03-08T08:16:08;37.45;;;21.33;;
56037;SDS011;41907;47.848;9.000;2024-03-08T08:18:35;40.10;;;20.58;;
56037;SDS011;41907;47.848;9.000;2024-03-08T08:21:01;39.20;;;20.73;;
56037;SDS011;41907;47.848;9.000;2024-03-08T08:23:31;39.28;;;21.27;;
56037;SDS011;41907;47.848;9.000;2024-03-08T08:25:57;38.92;;;20.48;;
56037;SDS011;41907;47.848;9.000;2024-03-08T08:28:24;41.92;;;21.33;;
56037;SDS011;41907;47.848;9.000;2024-03-08T08:30:49;37.47;;;19.75;;
56037;SDS011;41907;47.848;9.000;2024-03-08T08:33:15;39.85;;;21.30;;
56037;SDS011;41907;47.848;9.000;2024-03-08T08:35:40;38.08;;;20.55;;
56037;SDS011;41907;47.848;9.000;2024-03-08T08:38:06;39.60;;;20.83;;
56037;SDS011;41907;47.848;9.000;2024-03-08T08:40:32;35.88;;;19.70;;
56037;SDS011;41907;47.848;9.000;2024-03-08T08:42:58;39.70;;;20.15;;
56037;SDS011;41907;47.848;9.000;2024-03-08T08:45:24;38.80;;;19.75;;
56037;SDS011;41907;47.848;9.000;2024-03-08T08:47:50;37.58;;;20.92;;
56037;SDS011;41907;47.848;9.000;2024-03-08T08:50:16;42.60;;;21.55;;
56037;SDS011;41907;47.848;9.000;2024-03-08T08:52:48;41.42;;;21.02;;
56037;SDS011;41907;47.848;9.000;2024-03-08T08:55:14;38.78;;;21.70;;
56037;SDS011;41907;47.848;9.000;2024-03-08T08:57:40;39.33;;;21.48;;
56037;SDS011;41907;47.848;9.000;2024-03-08T09:00:09;43.92;;;22.27;;
56037;SDS011;41907;47.848;9.000;2024-03-08T09:02:39;42.10;;;21.55;;
56037;SDS011;41907;47.848;9.000;2024-03-08T09:05:06;36.13;;;19.75;;
56037;SDS011;41907;47.848;9.000;2024-03-08T09:07:32;34.08;;;19.50;;
56037;SDS011;41907;47.848;9.000;2024-03-08T09:09:58;34.75;;;18.67;;
56037;SDS011;41907;47.848;9.000;2024-03-08T09:12:24;32.92;;;17.95;;
56037;SDS011;41907;47.848;9.000;2024-03-08T09:14:50;33.53;;;18.23;;
56037;SDS011;41907;47.848;9.000;2024-03-08T09:17:15;31.02;;;17.05;;
56037;SDS011;41907;47.848;9.000;2024-03-08T09:19:45;31.58;;;16.83;;
56037;SDS011;41907;47.848;9.000;2024-03-08T09:22:10;30.58;;;16.42;;
56037;SDS011;41907;47.848;9.000;2024-03-08T09:24:36;30.13;;;15.48;;
56037;SDS011;41907;47.848;9.000;2024-03-08T09:27:01;29.55;;;15.85;;
56037;SDS011;41907;47.848;9.000;2024-03-08T09:29:26;25.75;;;14.52;;
56037;SDS011;41907;47.848;9.000;2024-03-08T09:31:52;26.02;;;14.63;;
56037;SDS011;41907;47.848;9.000;2024-03-08T09:34:17;29.73;;;15.43;;
56037;SDS011;41907;47.848;9.000;2024-03-08T09:36:43;26.23;;;14.68;;
56037;SDS011;41907;47.848;9.000;2024-03-08T09:39:09;24.42;;;13.80;;
56037;SDS011;41907;47.848;9.000;2024-03-08T09:41:34;23.83;;;13.70;;
56037;SDS011;41907;47.848;9.000;2024-03-08T09:44:00;23.10;;;12.68;;
56037;SDS011;41907;47.848;9.000;2024-03-08T09:46:26;24.80;;;13.60;;
56037;SDS011;41907;47.848;9.000;2024-03-08T09:48:54;22.80;;;12.57;;
56037;SDS011;41907;47.848;9.000;2024-03-08T09:51:27;23.27;;;12.73;;
56037;SDS011;41907;47.848;9.000;2024-03-08T09:53:54;23.00;;;13.45;;
56037;SDS011;41907;47.848;9.000;2024-03-08T09:56:19;27.63;;;14.63;;
56037;SDS011;41907;47.848;9.000;2024-03-08T09:58:48;26.02;;;13.30;;
56037;SDS011;41907;47.848;9.000;2024-03-08T10:01:33;27.73;;;15.43;;
56037;SDS011;41907;47.848;9.000;2024-03-08T10:03:58;30.30;;;16.48;;
56037;SDS011;41907;47.848;9.000;2024-03-08T10:06:23;25.42;;;14.40;;
56037;SDS011;41907;47.848;9.000;2024-03-08T10:08:49;29.60;;;15.52;;
56037;SDS011;41907;47.848;9.000;2024-03-08T10:11:17;34.75;;;17.13;;
56037;SDS011;41907;47.848;9.000;2024-03-08T10:13:42;29.88;;;17.50;;
56037;SDS011;41907;47.848;9.000;2024-03-08T10:16:11;28.98;;;16.80;;
56037;SDS011;41907;47.848;9.000;2024-03-08T10:18:37;35.88;;;16.70;;
56037;SDS011;41907;47.848;9.000;2024-03-08T10:21:06;29.60;;;16.90;;
56037;SDS011;41907;47.848;9.000;2024-03-08T10:23:34;26.75;;;15.80;;
56037;SDS011;41907;47.848;9.000;2024-03-08T10:26:11;33.10;;;16.83;;
56037;SDS011;41907;47.848;9.000;2024-03-08T10:28:45;25.65;;;14.18;;
56037;SDS011;41907;47.848;9.000;2024-03-08T10:31:13;27.45;;;15.63;;
56037;SDS011;41907;47.848;9.000;2024-03-08T10:33:40;27.77;;;14.48;;
56037;SDS011;41907;47.848;9.000;2024-03-08T10:36:06;26.95;;;15.02;;
56037;SDS011;41907;47.848;9.000;2024-03-08T10:38:34;29.40;;;16.10;;
56037;SDS011;41907;47.848;9.000;2024-03-08T10:41:01;26.30;;;14.65;;
56037;SDS011;41907;47.848;9.000;2024-03-08T10:43:31;28.08;;;15.15;;
56037;SDS011;41907;47.848;9.000;2024-03-08T10:48:53;29.40;;;15.25;;
56037;SDS011;41907;47.848;9.000;2024-03-08T10:51:23;27.58;;;15.30;;
56037;SDS011;41907;47.848;9.000;2024-03-08T10:53:50;26.70;;;15.18;;
56037;SDS011;41907;47.848;9.000;2024-03-08T10:56:17;27.98;;;14.13;;
56037;SDS011;41907;47.848;9.000;2024-03-08T10:58:42;25.00;;;15.18;;
56037;SDS011;41907;47.848;9.000;2024-03-08T11:01:09;22.58;;;13.70;;
56037;SDS011;41907;47.848;9.000;2024-03-08T11:03:46;27.13;;;15.07;;
56037;SDS011;41907;47.848;9.000;2024-03-08T11:06:19;25.85;;;14.85;;
56037;SDS011;41907;47.848;9.000;2024-03-08T11:08:48;25.65;;;15.30;;
56037;SDS011;41907;47.848;9.000;2024-03-08T11:11:24;27.98;;;14.48;;
56037;SDS011;41907;47.848;9.000;2024-03-08T11:13:59;28.15;;;16.40;;
56037;SDS011;41907;47.848;9.000;2024-03-08T11:18:58;24.27;;;14.10;;
56037;SDS011;41907;47.848;9.000;2024-03-08T11:21:31;26.30;;;15.27;;
56037;SDS011;41907;47.848;9.000;2024-03-08T11:24:11;28.00;;;15.88;;
56037;SDS011;41907;47.848;9.000;2024-03-08T11:26:38;25.85;;;15.55;;
56037;SDS011;41907;47.848;9.000;2024-03-08T11:32:10;25.02;;;13.95;;
56037;SDS011;41907;47.848;9.000;2024-03-08T11:34:38;26.50;;;14.93;;
56037;SDS011;41907;47.848;9.000;2024-03-08T11:37:14;23.95;;;14.55;;
56037;SDS011;41907;47.848;9.000;2024-03-08T11:39:46;26.15;;;14.80;;
56037;SDS011;41907;47.848;9.000;2024-03-08T11:42:16;24.95;;;14.13;;
56037;SDS011;41907;47.848;9.000;2024-03-08T11:44:45;26.30;;;14.38;;
56037;SDS011;41907;47.848;9.000;2024-03-08T11:47:11;29.83;;;16.15;;
56037;SDS011;41907;47.848;9.000;2024-03-08T11:49:37;28.73;;;15.35;;
56037;SDS011;41907;47.848;9.000;2024-03-08T11:52:04;27.33;;;16.35;;
56037;SDS011;41907;47.848;9.000;2024-03-08T11:54:29;27.55;;;14.73;;
56037;SDS011;41907;47.848;9.000;2024-03-08T11:56:56;25.98;;;14.35;;
56037;SDS011;41907;47.848;9.000;2024-03-08T11:59:26;29.15;;;15.80;;
56037;SDS011;41907;47.848;9.000;2024-03-08T12:02:11;26.40;;;14.50;;
56037;SDS011;41907;47.848;9.000;2024-03-08T12:04:36;28.50;;;15.00;;
56037;SDS011;41907;47.848;9.000;2024-03-08T12:07:02;30.08;;;15.68;;
56037;SDS011;41907;47.848;9.000;2024-03-08T12:09:33;26.58;;;15.68;;
56037;SDS011;41907;47.848;9.000;2024-03-08T12:12:01;28.48;;;15.90;;
56037;SDS011;41907;47.848;9.000;2024-03-08T12:14:28;25.60;;;14.75;;
56037;SDS011;41907;47.848;9.000;2024-03-08T12:16:53;25.65;;;14.45;;
56037;SDS011;41907;47.848;9.000;2024-03-08T12:19:19;26.17;;;14.95;;
56037;SDS011;41907;47.848;9.000;2024-03-08T12:21:44;29.52;;;15.43;;
56037;SDS011;41907;47.848;9.000;2024-03-08T12:24:16;25.30;;;13.93;;
56037;SDS011;41907;47.848;9.000;2024-03-08T12:26:44;26.98;;;14.85;;
56037;SDS011;41907;47.848;9.000;2024-03-08T12:31:48;28.35;;;15.57;;
56037;SDS011;41907;47.848;9.000;2024-03-08T12:34:17;27.67;;;15.15;;
56037;SDS011;41907;47.848;9.000;2024-03-08T12:36:49;28.23;;;15.15;;
56037;SDS011;41907;47.848;9.000;2024-03-08T12:41:55;27.50;;;16.00;;
56037;SDS011;41907;47.848;9.000;2024-03-08T12:44:24;27.85;;;15.63;;
56037;SDS011;41907;47.848;9.000;2024-03-08T12:46:51;26.50;;;15.23;;
56037;SDS011;41907;47.848;9.000;2024-03-08T12:49:16;28.85;;;16.08;;
56037;SDS011;41907;47.848;9.000;2024-03-08T12:51:47;30.20;;;15.70;;
56037;SDS011;41907;47.848;9.000;2024-03-08T12:54:13;29.60;;;15.10;;
56037;SDS011;41907;47.848;9.000;2024-03-08T12:56:39;41.40;;;19.50;;
56037;SDS011;41907;47.848;9.000;2024-03-08T12:59:05;33.67;;;16.50;;
56037;SDS011;41907;47.848;9.000;2024-03-08T13:01:32;26.23;;;15.88;;
56037;SDS011;41907;47.848;9.000;2024-03-08T13:03:58;26.55;;;15.60;;
56037;SDS011;41907;47.848;9.000;2024-03-08T13:06:26;27.60;;;15.82;;
56037;SDS011;41907;47.848;9.000;2024-03-08T13:08:53;22.35;;;13.60;;
56037;SDS011;41907;47.848;9.000;2024-03-08T13:11:20;23.83;;;13.77;;
56037;SDS011;41907;47.848;9.000;2024-03-08T13:13:46;24.20;;;14.63;;
56037;SDS011;41907;47.848;9.000;2024-03-08T13:16:12;25.58;;;14.73;;
56037;SDS011;41907;47.848;9.000;2024-03-08T13:18:40;21.95;;;13.00;;
56037;SDS011;41907;47.848;9.000;2024-03-08T13:21:07;21.77;;;13.10;;
56037;SDS011;41907;47.848;9.000;2024-03-08T13:23:34;23.35;;;13.23;;
56037;SDS011;41907;47.848;9.000;2024-03-08T13:26:06;21.13;;;12.55;;
56037;SDS011;41907;47.848;9.000;2024-03-08T13:28:32;19.60;;;12.05;;
56037;SDS011;41907;47.848;9.000;2024-03-08T13:31:02;20.45;;;12.57;;
56037;SDS011;41907;47.848;9.000;2024-03-08T13:33:37;21.20;;;12.95;;
56037;SDS011;41907;47.848;9.000;2024-03-08T13:36:04;18.27;;;12.57;;
56037;SDS011;41907;47.848;9.000;2024-03-08T13:38:31;19.67;;;11.70;;
56037;SDS011;41907;47.848;9.000;2024-03-08T13:41:01;18.95;;;11.57;;
56037;SDS011;41907;47.848;9.000;2024-03-08T13:43:27;22.75;;;13.00;;
56037;SDS011;41907;47.848;9.000;2024-03-08T13:45:53;21.20;;;11.90;;
56037;SDS011;41907;47.848;9.000;2024-03-08T13:48:19;21.80;;;11.98;;
56037;SDS011;41907;47.848;9.000;2024-03-08T13:50:47;22.83;;;12.55;;
56037;SDS011;41907;47.848;9.000;2024-03-08T13:53:13;21.17;;;13.20;;
56037;SDS011;41907;47.848;9.000;2024-03-08T13:55:38;20.75;;;12.20;;
56037;SDS011;41907;47.848;9.000;2024-03-08T13:58:03;19.33;;;11.38;;
56037;SDS011;41907;47.848;9.000;2024-03-08T14:00:29;21.50;;;12.85;;
56037;SDS011;41907;47.848;9.000;2024-03-08T14:02:58;21.02;;;13.05;;
56037;SDS011;41907;47.848;9.000;2024-03-08T14:05:24;18.88;;;11.38;;
56037;SDS011;41907;47.848;9.000;2024-03-08T14:07:50;19.40;;;12.60;;
56037;SDS011;41907;47.848;9.000;2024-03-08T14:10:15;23.00;;;11.90;;
56037;SDS011;41907;47.848;9.000;2024-03-08T14:12:42;20.48;;;12.48;;
56037;SDS011;41907;47.848;9.000;2024-03-08T14:15:09;18.75;;;11.73;;
56037;SDS011;41907;47.848;9.000;2024-03-08T14:17:36;19.58;;;12.05;;
56037;SDS011;41907;47.848;9.000;2024-03-08T14:20:01;21.58;;;12.93;;
56037;SDS011;41907;47.848;9.000;2024-03-08T14:22:26;19.52;;;11.70;;
56037;SDS011;41907;47.848;9.000;2024-03-08T14:24:52;19.58;;;12.57;;
56037;SDS011;41907;47.848;9.000;2024-03-08T14:27:17;19.67;;;12.50;;
56037;SDS011;41907;47.848;9.000;2024-03-08T14:29:43;23.75;;;12.43;;
56037;SDS011;41907;47.848;9.000;2024-03-08T14:32:10;21.60;;;12.32;;
56037;SDS011;41907;47.848;9.000;2024-03-08T14:34:35;19.92;;;12.25;;